sensor_id;sensor_type;location;lat;lon;timestamp;P1;durP1;ratioP1;P2;durP2;ratioP2
14060;SDS011;7105;43.616;1.434;2023-05-13T00:01:23;3.40;;;2.20;;
14060;SDS011;7105;43.616;1.434;2023-05-13T00:03:49;2.37;;;2.03;;
14060;SDS011;7105;43.616;1.434;2023-05-13T00:06:14;4.33;;;2.03;;
14060;SDS011;7105;43.616;1.434;2023-05-13T00:08:40;3.20;;;2.07;;
14060;SDS011;7105;43.616;1.434;2023-05-13T00:11:05;3.90;;;1.80;;
14060;SDS011;7105;43.616;1.434;2023-05-13T00:13:31;3.23;;;2.10;;
14060;SDS011;7105;43.616;1.434;2023-05-13T00:15:58;2.87;;;2.23;;
14060;SDS011;7105;43.616;1.434;2023-05-13T00:18:23;2.83;;;2.10;;
14060;SDS011;7105;43.616;1.434;2023-05-13T00:20:49;4.23;;;2.20;;
14060;SDS011;7105;43.616;1.434;2023-05-13T00:23:15;3.00;;;1.87;;
14060;SDS011;7105;43.616;1.434;2023-05-13T00:25:41;2.43;;;1.90;;
14060;SDS011;7105;43.616;1.434;2023-05-13T00:28:08;2.67;;;1.97;;
14060;SDS011;7105;43.616;1.434;2023-05-13T00:30:37;3.60;;;2.03;;
14060;SDS011;7105;43.616;1.434;2023-05-13T00:33:03;2.30;;;1.90;;
14060;SDS011;7105;43.616;1.434;2023-05-13T00:35:31;2.10;;;1.83;;
14060;SDS011;7105;43.616;1.434;2023-05-13T00:37:56;3.80;;;2.10;;
14060;SDS011;7105;43.616;1.434;2023-05-13T00:40:23;2.67;;;1.90;;
14060;SDS011;7105;43.616;1.434;2023-05-13T00:42:49;3.30;;;2.00;;
14060;SDS011;7105;43.616;1.434;2023-05-13T00:45:16;2.20;;;1.80;;
14060;SDS011;7105;43.616;1.434;2023-05-13T00:47:42;2.43;;;1.90;;
14060;SDS011;7105;43.616;1.434;2023-05-13T00:50:08;2.13;;;1.87;;
14060;SDS011;7105;43.616;1.434;2023-05-13T00:52:36;2.93;;;1.87;;
14060;SDS011;7105;43.616;1.434;2023-05-13T00:55:03;2.93;;;1.80;;
14060;SDS011;7105;43.616;1.434;2023-05-13T00:57:29;5.80;;;1.93;;
14060;SDS011;7105;43.616;1.434;2023-05-13T00:59:55;3.20;;;2.10;;
14060;SDS011;7105;43.616;1.434;2023-05-13T01:02:23;3.10;;;2.20;;
14060;SDS011;7105;43.616;1.434;2023-05-13T01:05:01;2.60;;;1.70;;
14060;SDS011;7105;43.616;1.434;2023-05-13T01:13:10;2.73;;;2.00;;
14060;SDS011;7105;43.616;1.434;2023-05-13T01:15:47;2.93;;;2.10;;
14060;SDS011;7105;43.616;1.434;2023-05-13T01:19:04;3.03;;;1.70;;
14060;SDS011;7105;43.616;1.434;2023-05-13T01:21:13;3.63;;;2.20;;
14060;SDS011;7105;43.616;1.434;2023-05-13T01:23:39;3.67;;;1.97;;
14060;SDS011;7105;43.616;1.434;2023-05-13T01:26:04;3.90;;;2.00;;
14060;SDS011;7105;43.616;1.434;2023-05-13T01:28:30;2.20;;;2.00;;
14060;SDS011;7105;43.616;1.434;2023-05-13T01:30:56;2.20;;;2.00;;
14060;SDS011;7105;43.616;1.434;2023-05-13T01:33:22;5.23;;;2.57;;
14060;SDS011;7105;43.616;1.434;2023-05-13T01:35:49;3.83;;;2.30;;
14060;SDS011;7105;43.616;1.434;2023-05-13T01:38:16;3.23;;;2.23;;
14060;SDS011;7105;43.616;1.434;2023-05-13T01:40:43;2.53;;;2.17;;
14060;SDS011;7105;43.616;1.434;2023-05-13T01:43:10;2.50;;;2.30;;
14060;SDS011;7105;43.616;1.434;2023-05-13T01:45:35;3.17;;;2.17;;
14060;SDS011;7105;43.616;1.434;2023-05-13T01:48:01;2.57;;;2.37;;
14060;SDS011;7105;43.616;1.434;2023-05-13T01:50:27;3.00;;;2.23;;
14060;SDS011;7105;43.616;1.434;2023-05-13T01:52:53;3.67;;;2.30;;
14060;SDS011;7105;43.616;1.434;2023-05-13T01:55:18;3.73;;;2.10;;
14060;SDS011;7105;43.616;1.434;2023-05-13T01:57:44;5.30;;;2.97;;
14060;SDS011;7105;43.616;1.434;2023-05-13T02:00:10;3.10;;;2.30;;
14060;SDS011;7105;43.616;1.434;2023-05-13T02:02:36;4.00;;;2.03;;
14060;SDS011;7105;43.616;1.434;2023-05-13T02:05:01;4.23;;;2.50;;
14060;SDS011;7105;43.616;1.434;2023-05-13T02:07:27;2.80;;;2.50;;
14060;SDS011;7105;43.616;1.434;2023-05-13T02:09:53;2.60;;;2.40;;
14060;SDS011;7105;43.616;1.434;2023-05-13T02:12:23;3.60;;;2.40;;
14060;SDS011;7105;43.616;1.434;2023-05-13T02:14:50;3.30;;;2.20;;
14060;SDS011;7105;43.616;1.434;2023-05-13T02:17:17;4.17;;;2.50;;
14060;SDS011;7105;43.616;1.434;2023-05-13T02:19:43;3.07;;;2.10;;
14060;SDS011;7105;43.616;1.434;2023-05-13T02:22:08;2.53;;;2.20;;
14060;SDS011;7105;43.616;1.434;2023-05-13T02:24:34;4.70;;;2.37;;
14060;SDS011;7105;43.616;1.434;2023-05-13T02:27:03;3.70;;;2.43;;
14060;SDS011;7105;43.616;1.434;2023-05-13T02:29:32;2.60;;;2.40;;
14060;SDS011;7105;43.616;1.434;2023-05-13T02:31:58;2.57;;;2.37;;
14060;SDS011;7105;43.616;1.434;2023-05-13T02:34:24;3.30;;;2.30;;
14060;SDS011;7105;43.616;1.434;2023-05-13T02:36:50;3.07;;;2.50;;
14060;SDS011;7105;43.616;1.434;2023-05-13T02:39:16;3.07;;;2.50;;
14060;SDS011;7105;43.616;1.434;2023-05-13T02:41:42;2.60;;;2.40;;
14060;SDS011;7105;43.616;1.434;2023-05-13T02:44:08;4.43;;;2.07;;
14060;SDS011;7105;43.616;1.434;2023-05-13T02:46:37;4.27;;;2.60;;
14060;SDS011;7105;43.616;1.434;2023-05-13T02:49:02;3.27;;;2.20;;
14060;SDS011;7105;43.616;1.434;2023-05-13T02:51:28;4.60;;;2.83;;
14060;SDS011;7105;43.616;1.434;2023-05-13T02:53:54;3.67;;;2.60;;
14060;SDS011;7105;43.616;1.434;2023-05-13T02:56:19;4.07;;;2.93;;
14060;SDS011;7105;43.616;1.434;2023-05-13T02:58:45;3.93;;;2.57;;
14060;SDS011;7105;43.616;1.434;2023-05-13T03:01:11;5.03;;;2.97;;
14060;SDS011;7105;43.616;1.434;2023-05-13T03:03:37;3.37;;;3.07;;
14060;SDS011;7105;43.616;1.434;2023-05-13T03:06:03;3.93;;;2.40;;
14060;SDS011;7105;43.616;1.434;2023-05-13T03:08:29;5.37;;;2.80;;
14060;SDS011;7105;43.616;1.434;2023-05-13T03:10:55;3.80;;;2.90;;
14060;SDS011;7105;43.616;1.434;2023-05-13T03:13:21;5.77;;;2.80;;
14060;SDS011;7105;43.616;1.434;2023-05-13T03:15:47;3.47;;;2.77;;
14060;SDS011;7105;43.616;1.434;2023-05-13T03:18:13;4.30;;;2.90;;
14060;SDS011;7105;43.616;1.434;2023-05-13T03:20:38;3.60;;;2.83;;
14060;SDS011;7105;43.616;1.434;2023-05-13T03:23:07;3.93;;;3.00;;
14060;SDS011;7105;43.616;1.434;2023-05-13T03:25:33;3.73;;;3.17;;
14060;SDS011;7105;43.616;1.434;2023-05-13T03:27:58;3.07;;;2.53;;
14060;SDS011;7105;43.616;1.434;2023-05-13T03:30:24;3.53;;;2.60;;
14060;SDS011;7105;43.616;1.434;2023-05-13T03:32:50;3.80;;;2.73;;
14060;SDS011;7105;43.616;1.434;2023-05-13T03:35:15;3.17;;;2.70;;
14060;SDS011;7105;43.616;1.434;2023-05-13T03:37:41;2.63;;;2.43;;
14060;SDS011;7105;43.616;1.434;2023-05-13T03:40:07;4.67;;;3.00;;
14060;SDS011;7105;43.616;1.434;2023-05-13T03:42:33;4.10;;;2.90;;
14060;SDS011;7105;43.616;1.434;2023-05-13T03:44:58;4.47;;;3.00;;
14060;SDS011;7105;43.616;1.434;2023-05-13T03:47:24;3.90;;;3.27;;
14060;SDS011;7105;43.616;1.434;2023-05-13T03:49:50;4.07;;;3.07;;
14060;SDS011;7105;43.616;1.434;2023-05-13T03:52:15;4.70;;;2.93;;
14060;SDS011;7105;43.616;1.434;2023-05-13T03:54:41;6.27;;;3.37;;
14060;SDS011;7105;43.616;1.434;2023-05-13T03:57:07;5.10;;;3.30;;
14060;SDS011;7105;43.616;1.434;2023-05-13T03:59:33;4.13;;;3.13;;
14060;SDS011;7105;43.616;1.434;2023-05-13T04:01:59;4.53;;;3.40;;
14060;SDS011;7105;43.616;1.434;2023-05-13T04:04:24;4.53;;;3.33;;
14060;SDS011;7105;43.616;1.434;2023-05-13T04:06:50;4.40;;;3.17;;
14060;SDS011;7105;43.616;1.434;2023-05-13T04:09:16;5.47;;;3.30;;
14060;SDS011;7105;43.616;1.434;2023-05-13T04:11:41;5.40;;;3.97;;
14060;SDS011;7105;43.616;1.434;2023-05-13T04:14:07;8.97;;;3.93;;
14060;SDS011;7105;43.616;1.434;2023-05-13T04:16:33;5.47;;;3.50;;
14060;SDS011;7105;43.616;1.434;2023-05-13T04:18:58;5.00;;;3.67;;
14060;SDS011;7105;43.616;1.434;2023-05-13T04:21:24;4.90;;;3.70;;
14060;SDS011;7105;43.616;1.434;2023-05-13T04:23:50;5.03;;;3.70;;
14060;SDS011;7105;43.616;1.434;2023-05-13T04:26:15;5.13;;;3.60;;
14060;SDS011;7105;43.616;1.434;2023-05-13T04:28:41;5.77;;;3.80;;
14060;SDS011;7105;43.616;1.434;2023-05-13T04:31:06;6.07;;;3.93;;
14060;SDS011;7105;43.616;1.434;2023-05-13T04:33:32;4.70;;;3.87;;
14060;SDS011;7105;43.616;1.434;2023-05-13T04:35:58;7.30;;;4.77;;
14060;SDS011;7105;43.616;1.434;2023-05-13T04:38:23;6.93;;;4.03;;
14060;SDS011;7105;43.616;1.434;2023-05-13T04:40:49;4.43;;;4.03;;
14060;SDS011;7105;43.616;1.434;2023-05-13T04:43:15;6.40;;;4.23;;
14060;SDS011;7105;43.616;1.434;2023-05-13T04:45:41;6.33;;;4.53;;
14060;SDS011;7105;43.616;1.434;2023-05-13T04:48:07;5.30;;;4.70;;
14060;SDS011;7105;43.616;1.434;2023-05-13T04:50:32;5.50;;;4.20;;
14060;SDS011;7105;43.616;1.434;2023-05-13T04:52:58;5.93;;;4.43;;
14060;SDS011;7105;43.616;1.434;2023-05-13T04:55:24;6.27;;;5.00;;
14060;SDS011;7105;43.616;1.434;2023-05-13T04:57:49;6.53;;;5.23;;
14060;SDS011;7105;43.616;1.434;2023-05-13T05:00:15;8.07;;;4.90;;
14060;SDS011;7105;43.616;1.434;2023-05-13T05:02:41;5.33;;;4.53;;
14060;SDS011;7105;43.616;1.434;2023-05-13T05:05:06;7.10;;;4.77;;
14060;SDS011;7105;43.616;1.434;2023-05-13T05:07:32;6.20;;;5.50;;
14060;SDS011;7105;43.616;1.434;2023-05-13T05:09:58;8.60;;;5.07;;
14060;SDS011;7105;43.616;1.434;2023-05-13T05:12:24;6.70;;;4.93;;
14060;SDS011;7105;43.616;1.434;2023-05-13T05:14:50;5.70;;;5.03;;
14060;SDS011;7105;43.616;1.434;2023-05-13T05:17:16;6.23;;;5.30;;
14060;SDS011;7105;43.616;1.434;2023-05-13T05:19:41;6.70;;;5.03;;
14060;SDS011;7105;43.616;1.434;2023-05-13T05:22:07;6.27;;;5.10;;
14060;SDS011;7105;43.616;1.434;2023-05-13T05:24:33;5.63;;;4.83;;
14060;SDS011;7105;43.616;1.434;2023-05-13T05:26:58;6.63;;;5.60;;
14060;SDS011;7105;43.616;1.434;2023-05-13T05:29:24;5.70;;;5.10;;
14060;SDS011;7105;43.616;1.434;2023-05-13T05:31:50;7.83;;;4.90;;
14060;SDS011;7105;43.616;1.434;2023-05-13T05:34:16;5.80;;;5.30;;
14060;SDS011;7105;43.616;1.434;2023-05-13T05:36:41;5.17;;;4.67;;
14060;SDS011;7105;43.616;1.434;2023-05-13T05:39:07;7.83;;;4.73;;
14060;SDS011;7105;43.616;1.434;2023-05-13T05:41:33;6.80;;;5.30;;
14060;SDS011;7105;43.616;1.434;2023-05-13T05:43:59;6.23;;;5.00;;
14060;SDS011;7105;43.616;1.434;2023-05-13T05:46:24;7.00;;;4.70;;
14060;SDS011;7105;43.616;1.434;2023-05-13T05:48:50;6.67;;;4.77;;
14060;SDS011;7105;43.616;1.434;2023-05-13T05:51:16;5.43;;;4.93;;
14060;SDS011;7105;43.616;1.434;2023-05-13T05:53:41;6.23;;;5.03;;
14060;SDS011;7105;43.616;1.434;2023-05-13T05:56:08;5.50;;;4.97;;
14060;SDS011;7105;43.616;1.434;2023-05-13T05:58:34;6.87;;;4.73;;
14060;SDS011;7105;43.616;1.434;2023-05-13T06:01:03;6.47;;;4.20;;
14060;SDS011;7105;43.616;1.434;2023-05-13T06:03:29;5.43;;;4.57;;
14060;SDS011;7105;43.616;1.434;2023-05-13T06:05:55;6.93;;;4.63;;
14060;SDS011;7105;43.616;1.434;2023-05-13T06:08:23;7.33;;;4.57;;
14060;SDS011;7105;43.616;1.434;2023-05-13T06:10:54;5.27;;;4.60;;
14060;SDS011;7105;43.616;1.434;2023-05-13T06:13:21;5.57;;;4.60;;
14060;SDS011;7105;43.616;1.434;2023-05-13T06:15:47;7.30;;;4.50;;
14060;SDS011;7105;43.616;1.434;2023-05-13T06:18:12;8.63;;;4.70;;
14060;SDS011;7105;43.616;1.434;2023-05-13T06:20:38;5.90;;;4.73;;
14060;SDS011;7105;43.616;1.434;2023-05-13T06:23:05;5.57;;;4.60;;
14060;SDS011;7105;43.616;1.434;2023-05-13T06:25:31;5.87;;;4.83;;
14060;SDS011;7105;43.616;1.434;2023-05-13T06:27:57;6.37;;;4.47;;
14060;SDS011;7105;43.616;1.434;2023-05-13T06:30:23;5.93;;;4.40;;
14060;SDS011;7105;43.616;1.434;2023-05-13T06:32:49;6.23;;;4.77;;
14060;SDS011;7105;43.616;1.434;2023-05-13T06:35:15;6.63;;;4.30;;
14060;SDS011;7105;43.616;1.434;2023-05-13T06:37:40;5.83;;;4.97;;
14060;SDS011;7105;43.616;1.434;2023-05-13T06:40:06;6.63;;;4.63;;
14060;SDS011;7105;43.616;1.434;2023-05-13T06:42:32;6.43;;;5.00;;
14060;SDS011;7105;43.616;1.434;2023-05-13T06:45:03;5.07;;;4.50;;
14060;SDS011;7105;43.616;1.434;2023-05-13T06:47:32;5.23;;;4.27;;
14060;SDS011;7105;43.616;1.434;2023-05-13T06:49:59;5.70;;;4.37;;
14060;SDS011;7105;43.616;1.434;2023-05-13T06:52:25;6.00;;;4.53;;
14060;SDS011;7105;43.616;1.434;2023-05-13T06:54:50;4.87;;;4.00;;
14060;SDS011;7105;43.616;1.434;2023-05-13T06:57:16;6.87;;;4.50;;
14060;SDS011;7105;43.616;1.434;2023-05-13T06:59:43;8.00;;;4.57;;
14060;SDS011;7105;43.616;1.434;2023-05-13T07:02:09;7.87;;;4.53;;
14060;SDS011;7105;43.616;1.434;2023-05-13T07:04:37;9.13;;;4.07;;
14060;SDS011;7105;43.616;1.434;2023-05-13T07:07:03;5.73;;;4.37;;
14060;SDS011;7105;43.616;1.434;2023-05-13T07:09:29;5.10;;;4.60;;
14060;SDS011;7105;43.616;1.434;2023-05-13T07:11:54;4.43;;;4.00;;
14060;SDS011;7105;43.616;1.434;2023-05-13T07:14:20;4.30;;;3.90;;
14060;SDS011;7105;43.616;1.434;2023-05-13T07:16:46;6.20;;;4.13;;
14060;SDS011;7105;43.616;1.434;2023-05-13T07:19:11;5.80;;;3.80;;
14060;SDS011;7105;43.616;1.434;2023-05-13T07:21:37;6.03;;;3.80;;
14060;SDS011;7105;43.616;1.434;2023-05-13T07:24:03;5.93;;;4.03;;
14060;SDS011;7105;43.616;1.434;2023-05-13T07:26:29;5.83;;;3.93;;
14060;SDS011;7105;43.616;1.434;2023-05-13T07:28:56;4.40;;;3.60;;
14060;SDS011;7105;43.616;1.434;2023-05-13T07:31:21;4.87;;;3.87;;
14060;SDS011;7105;43.616;1.434;2023-05-13T07:33:47;3.93;;;3.37;;
14060;SDS011;7105;43.616;1.434;2023-05-13T07:36:13;5.20;;;4.07;;
14060;SDS011;7105;43.616;1.434;2023-05-13T07:38:39;4.70;;;3.60;;
14060;SDS011;7105;43.616;1.434;2023-05-13T07:41:07;6.00;;;4.30;;
14060;SDS011;7105;43.616;1.434;2023-05-13T07:43:32;6.23;;;4.33;;
14060;SDS011;7105;43.616;1.434;2023-05-13T07:45:59;6.60;;;4.00;;
14060;SDS011;7105;43.616;1.434;2023-05-13T07:48:25;3.70;;;3.40;;
14060;SDS011;7105;43.616;1.434;2023-05-13T07:50:52;5.43;;;4.17;;
14060;SDS011;7105;43.616;1.434;2023-05-13T07:53:18;5.27;;;3.63;;
14060;SDS011;7105;43.616;1.434;2023-05-13T07:55:43;4.77;;;3.30;;
14060;SDS011;7105;43.616;1.434;2023-05-13T07:58:09;4.53;;;3.20;;
14060;SDS011;7105;43.616;1.434;2023-05-13T08:00:37;6.20;;;3.80;;
14060;SDS011;7105;43.616;1.434;2023-05-13T08:03:03;6.73;;;3.60;;
14060;SDS011;7105;43.616;1.434;2023-05-13T08:05:31;7.77;;;3.47;;
14060;SDS011;7105;43.616;1.434;2023-05-13T08:07:57;5.40;;;3.90;;
14060;SDS011;7105;43.616;1.434;2023-05-13T08:10:23;5.23;;;3.30;;
14060;SDS011;7105;43.616;1.434;2023-05-13T08:12:48;4.00;;;2.97;;
14060;SDS011;7105;43.616;1.434;2023-05-13T08:15:18;7.20;;;3.67;;
14060;SDS011;7105;43.616;1.434;2023-05-13T08:17:43;3.27;;;3.03;;
14060;SDS011;7105;43.616;1.434;2023-05-13T08:20:09;5.03;;;3.53;;
14060;SDS011;7105;43.616;1.434;2023-05-13T08:22:35;4.53;;;2.93;;
14060;SDS011;7105;43.616;1.434;2023-05-13T08:25:01;5.37;;;3.40;;
14060;SDS011;7105;43.616;1.434;2023-05-13T08:27:27;5.80;;;3.20;;
14060;SDS011;7105;43.616;1.434;2023-05-13T08:29:53;4.80;;;2.70;;
14060;SDS011;7105;43.616;1.434;2023-05-13T08:32:18;5.63;;;2.70;;
14060;SDS011;7105;43.616;1.434;2023-05-13T08:34:44;3.73;;;2.97;;
14060;SDS011;7105;43.616;1.434;2023-05-13T08:37:10;5.83;;;2.90;;
14060;SDS011;7105;43.616;1.434;2023-05-13T08:39:35;5.87;;;2.93;;
14060;SDS011;7105;43.616;1.434;2023-05-13T08:42:02;4.83;;;2.83;;
14060;SDS011;7105;43.616;1.434;2023-05-13T08:44:28;4.67;;;2.80;;
14060;SDS011;7105;43.616;1.434;2023-05-13T08:49:45;3.80;;;2.60;;
14060;SDS011;7105;43.616;1.434;2023-05-13T08:52:11;6.80;;;2.77;;
14060;SDS011;7105;43.616;1.434;2023-05-13T08:54:37;4.03;;;2.67;;
14060;SDS011;7105;43.616;1.434;2023-05-13T08:57:03;3.43;;;2.33;;
14060;SDS011;7105;43.616;1.434;2023-05-13T08:59:31;3.93;;;2.67;;
14060;SDS011;7105;43.616;1.434;2023-05-13T09:01:57;3.83;;;2.17;;
14060;SDS011;7105;43.616;1.434;2023-05-13T09:04:27;5.63;;;2.80;;
14060;SDS011;7105;43.616;1.434;2023-05-13T09:06:53;4.78;;;2.60;;
14060;SDS011;7105;43.616;1.434;2023-05-13T09:09:18;4.72;;;2.55;;
14060;SDS011;7105;43.616;1.434;2023-05-13T09:11:47;3.90;;;2.80;;
14060;SDS011;7105;43.616;1.434;2023-05-13T09:14:13;6.97;;;2.88;;
14060;SDS011;7105;43.616;1.434;2023-05-13T09:16:43;4.13;;;2.65;;
14060;SDS011;7105;43.616;1.434;2023-05-13T09:19:08;4.87;;;2.70;;
14060;SDS011;7105;43.616;1.434;2023-05-13T09:21:35;3.57;;;3.10;;
14060;SDS011;7105;43.616;1.434;2023-05-13T09:24:11;4.83;;;2.93;;
14060;SDS011;7105;43.616;1.434;2023-05-13T09:26:42;3.47;;;2.83;;
14060;SDS011;7105;43.616;1.434;2023-05-13T09:29:24;3.47;;;2.57;;
14060;SDS011;7105;43.616;1.434;2023-05-13T09:31:54;3.67;;;2.83;;
14060;SDS011;7105;43.616;1.434;2023-05-13T09:34:24;6.07;;;2.90;;
14060;SDS011;7105;43.616;1.434;2023-05-13T09:36:58;4.07;;;2.90;;
14060;SDS011;7105;43.616;1.434;2023-05-13T09:39:32;5.13;;;4.60;;
14060;SDS011;7105;43.616;1.434;2023-05-13T09:42:02;6.83;;;3.00;;
14060;SDS011;7105;43.616;1.434;2023-05-13T09:44:28;4.63;;;3.30;;
14060;SDS011;7105;43.616;1.434;2023-05-13T09:46:54;3.00;;;2.70;;
14060;SDS011;7105;43.616;1.434;2023-05-13T09:49:23;4.27;;;2.57;;
14060;SDS011;7105;43.616;1.434;2023-05-13T09:51:50;8.67;;;7.93;;
14060;SDS011;7105;43.616;1.434;2023-05-13T09:54:16;3.50;;;2.30;;
14060;SDS011;7105;43.616;1.434;2023-05-13T09:56:42;4.20;;;2.43;;
14060;SDS011;7105;43.616;1.434;2023-05-13T09:59:07;4.33;;;2.50;;
14060;SDS011;7105;43.616;1.434;2023-05-13T10:01:34;6.43;;;2.97;;
14060;SDS011;7105;43.616;1.434;2023-05-13T10:04:00;4.47;;;2.90;;
14060;SDS011;7105;43.616;1.434;2023-05-13T10:06:28;4.83;;;2.80;;
14060;SDS011;7105;43.616;1.434;2023-05-13T10:08:54;5.47;;;3.03;;
14060;SDS011;7105;43.616;1.434;2023-05-13T10:11:28;5.07;;;2.80;;
14060;SDS011;7105;43.616;1.434;2023-05-13T10:14:00;7.50;;;3.20;;
14060;SDS011;7105;43.616;1.434;2023-05-13T10:16:29;7.77;;;3.60;;
14060;SDS011;7105;43.616;1.434;2023-05-13T10:18:56;5.07;;;3.20;;
14060;SDS011;7105;43.616;1.434;2023-05-13T10:21:23;3.37;;;2.63;;
14060;SDS011;7105;43.616;1.434;2023-05-13T10:23:50;4.87;;;2.50;;
14060;SDS011;7105;43.616;1.434;2023-05-13T10:26:17;6.00;;;2.83;;
14060;SDS011;7105;43.616;1.434;2023-05-13T10:28:47;3.33;;;2.33;;
14060;SDS011;7105;43.616;1.434;2023-05-13T10:31:13;4.33;;;2.80;;
14060;SDS011;7105;43.616;1.434;2023-05-13T10:33:40;6.03;;;2.73;;
14060;SDS011;7105;43.616;1.434;2023-05-13T10:44:56;4.33;;;2.50;;
14060;SDS011;7105;43.616;1.434;2023-05-13T10:47:22;5.97;;;2.53;;
14060;SDS011;7105;43.616;1.434;2023-05-13T10:49:51;4.23;;;2.50;;
14060;SDS011;7105;43.616;1.434;2023-05-13T10:52:17;4.00;;;2.47;;
14060;SDS011;7105;43.616;1.434;2023-05-13T10:54:45;3.80;;;2.67;;
14060;SDS011;7105;43.616;1.434;2023-05-13T10:57:28;3.40;;;2.57;;
14060;SDS011;7105;43.616;1.434;2023-05-13T11:00:12;3.07;;;2.43;;
14060;SDS011;7105;43.616;1.434;2023-05-13T11:02:39;4.37;;;2.50;;
14060;SDS011;7105;43.616;1.434;2023-05-13T11:05:05;4.60;;;2.40;;
14060;SDS011;7105;43.616;1.434;2023-05-13T11:07:31;4.37;;;2.60;;
14060;SDS011;7105;43.616;1.434;2023-05-13T11:10:03;3.35;;;2.40;;
14060;SDS011;7105;43.616;1.434;2023-05-13T11:15:52;3.43;;;2.30;;
14060;SDS011;7105;43.616;1.434;2023-05-13T11:18:19;5.40;;;2.77;;
14060;SDS011;7105;43.616;1.434;2023-05-13T11:20:53;3.17;;;2.50;;
14060;SDS011;7105;43.616;1.434;2023-05-13T11:23:19;4.80;;;2.83;;
14060;SDS011;7105;43.616;1.434;2023-05-13T11:25:45;3.97;;;2.45;;
14060;SDS011;7105;43.616;1.434;2023-05-13T11:31:41;3.67;;;2.10;;
14060;SDS011;7105;43.616;1.434;2023-05-13T11:34:20;3.93;;;2.83;;
14060;SDS011;7105;43.616;1.434;2023-05-13T11:36:55;2.47;;;1.83;;
14060;SDS011;7105;43.616;1.434;2023-05-13T11:39:27;5.22;;;2.35;;
14060;SDS011;7105;43.616;1.434;2023-05-13T11:41:53;3.60;;;2.13;;
14060;SDS011;7105;43.616;1.434;2023-05-13T11:44:21;3.08;;;2.00;;
14060;SDS011;7105;43.616;1.434;2023-05-13T11:46:55;3.33;;;2.07;;
14060;SDS011;7105;43.616;1.434;2023-05-13T11:52:10;2.90;;;1.88;;
14060;SDS011;7105;43.616;1.434;2023-05-13T11:54:46;3.45;;;1.70;;
14060;SDS011;7105;43.616;1.434;2023-05-13T11:59:55;3.30;;;1.63;;
14060;SDS011;7105;43.616;1.434;2023-05-13T12:02:22;3.22;;;1.80;;
14060;SDS011;7105;43.616;1.434;2023-05-13T12:04:49;4.00;;;2.50;;
14060;SDS011;7105;43.616;1.434;2023-05-13T12:07:20;2.75;;;2.22;;
14060;SDS011;7105;43.616;1.434;2023-05-13T12:09:47;2.65;;;2.05;;
14060;SDS011;7105;43.616;1.434;2023-05-13T12:12:14;4.03;;;1.95;;
14060;SDS011;7105;43.616;1.434;2023-05-13T12:14:41;3.83;;;1.58;;
14060;SDS011;7105;43.616;1.434;2023-05-13T12:17:08;2.95;;;1.50;;
14060;SDS011;7105;43.616;1.434;2023-05-13T12:19:34;2.13;;;1.92;;
14060;SDS011;7105;43.616;1.434;2023-05-13T12:22:01;3.47;;;1.90;;
14060;SDS011;7105;43.616;1.434;2023-05-13T12:24:27;2.15;;;1.80;;
14060;SDS011;7105;43.616;1.434;2023-05-13T12:27:04;3.85;;;1.90;;
14060;SDS011;7105;43.616;1.434;2023-05-13T12:29:41;3.90;;;1.70;;
14060;SDS011;7105;43.616;1.434;2023-05-13T12:32:07;2.63;;;2.03;;
14060;SDS011;7105;43.616;1.434;2023-05-13T12:34:34;3.92;;;2.10;;
14060;SDS011;7105;43.616;1.434;2023-05-13T12:37:12;2.22;;;2.03;;
14060;SDS011;7105;43.616;1.434;2023-05-13T12:39:38;3.72;;;1.75;;
14060;SDS011;7105;43.616;1.434;2023-05-13T12:42:05;2.22;;;1.73;;
14060;SDS011;7105;43.616;1.434;2023-05-13T12:44:37;2.47;;;1.67;;
14060;SDS011;7105;43.616;1.434;2023-05-13T12:47:03;4.82;;;2.17;;
14060;SDS011;7105;43.616;1.434;2023-05-13T12:49:34;2.10;;;1.90;;
14060;SDS011;7105;43.616;1.434;2023-05-13T12:52:14;4.15;;;2.85;;
14060;SDS011;7105;43.616;1.434;2023-05-13T12:54:40;4.78;;;2.47;;
14060;SDS011;7105;43.616;1.434;2023-05-13T12:57:08;3.30;;;1.70;;
14060;SDS011;7105;43.616;1.434;2023-05-13T12:59:34;3.55;;;1.85;;
14060;SDS011;7105;43.616;1.434;2023-05-13T13:02:00;2.47;;;2.10;;
14060;SDS011;7105;43.616;1.434;2023-05-13T13:04:26;3.03;;;1.70;;
14060;SDS011;7105;43.616;1.434;2023-05-13T13:06:51;2.95;;;1.70;;
14060;SDS011;7105;43.616;1.434;2023-05-13T13:09:17;4.65;;;1.92;;
14060;SDS011;7105;43.616;1.434;2023-05-13T13:11:43;2.90;;;1.80;;
14060;SDS011;7105;43.616;1.434;2023-05-13T13:14:08;2.75;;;1.67;;
14060;SDS011;7105;43.616;1.434;2023-05-13T13:16:34;1.77;;;1.45;;
14060;SDS011;7105;43.616;1.434;2023-05-13T13:19:00;2.60;;;1.75;;
14060;SDS011;7105;43.616;1.434;2023-05-13T13:21:25;2.40;;;1.67;;
14060;SDS011;7105;43.616;1.434;2023-05-13T13:23:51;2.78;;;1.70;;
14060;SDS011;7105;43.616;1.434;2023-05-13T13:26:17;2.67;;;1.60;;
14060;SDS011;7105;43.616;1.434;2023-05-13T13:28:42;2.00;;;1.40;;
14060;SDS011;7105;43.616;1.434;2023-05-13T13:31:08;1.88;;;1.40;;
14060;SDS011;7105;43.616;1.434;2023-05-13T13:33:35;2.15;;;1.52;;
14060;SDS011;7105;43.616;1.434;2023-05-13T13:36:01;2.47;;;1.63;;
14060;SDS011;7105;43.616;1.434;2023-05-13T13:38:27;4.95;;;1.60;;
14060;SDS011;7105;43.616;1.434;2023-05-13T13:40:55;2.03;;;1.42;;
14060;SDS011;7105;43.616;1.434;2023-05-13T13:43:23;1.67;;;1.42;;
14060;SDS011;7105;43.616;1.434;2023-05-13T13:45:49;2.92;;;1.40;;
14060;SDS011;7105;43.616;1.434;2023-05-13T13:48:14;1.67;;;1.52;;
14060;SDS011;7105;43.616;1.434;2023-05-13T13:50:40;2.47;;;1.58;;
14060;SDS011;7105;43.616;1.434;2023-05-13T13:53:06;4.22;;;1.80;;
14060;SDS011;7105;43.616;1.434;2023-05-13T13:55:37;2.28;;;1.35;;
14060;SDS011;7105;43.616;1.434;2023-05-13T13:58:02;3.30;;;1.65;;
14060;SDS011;7105;43.616;1.434;2023-05-13T14:00:28;2.25;;;1.50;;
14060;SDS011;7105;43.616;1.434;2023-05-13T14:02:54;2.40;;;1.70;;
14060;SDS011;7105;43.616;1.434;2023-05-13T14:05:20;3.75;;;1.77;;
14060;SDS011;7105;43.616;1.434;2023-05-13T14:07:46;2.10;;;1.30;;
14060;SDS011;7105;43.616;1.434;2023-05-13T14:10:13;2.15;;;1.40;;
14060;SDS011;7105;43.616;1.434;2023-05-13T14:12:39;3.63;;;1.60;;
14060;SDS011;7105;43.616;1.434;2023-05-13T14:15:05;3.88;;;1.70;;
14060;SDS011;7105;43.616;1.434;2023-05-13T14:17:31;3.83;;;1.10;;
14060;SDS011;7105;43.616;1.434;2023-05-13T14:19:57;1.63;;;1.30;;
14060;SDS011;7105;43.616;1.434;2023-05-13T14:22:23;4.10;;;1.20;;
14060;SDS011;7105;43.616;1.434;2023-05-13T14:24:49;2.70;;;1.38;;
14060;SDS011;7105;43.616;1.434;2023-05-13T14:27:16;2.75;;;1.42;;
14060;SDS011;7105;43.616;1.434;2023-05-13T14:29:42;3.08;;;1.85;;
14060;SDS011;7105;43.616;1.434;2023-05-13T14:32:09;2.25;;;1.30;;
14060;SDS011;7105;43.616;1.434;2023-05-13T14:34:37;2.80;;;1.60;;
14060;SDS011;7105;43.616;1.434;2023-05-13T14:37:03;1.83;;;1.42;;
14060;SDS011;7105;43.616;1.434;2023-05-13T14:39:29;2.70;;;1.42;;
14060;SDS011;7105;43.616;1.434;2023-05-13T14:41:55;2.47;;;1.60;;
14060;SDS011;7105;43.616;1.434;2023-05-13T14:44:20;4.45;;;1.67;;
14060;SDS011;7105;43.616;1.434;2023-05-13T14:46:46;2.85;;;1.60;;
14060;SDS011;7105;43.616;1.434;2023-05-13T14:49:12;3.65;;;1.60;;
14060;SDS011;7105;43.616;1.434;2023-05-13T14:51:37;2.15;;;1.27;;
14060;SDS011;7105;43.616;1.434;2023-05-13T14:54:03;1.85;;;1.40;;
14060;SDS011;7105;43.616;1.434;2023-05-13T14:56:29;3.08;;;1.38;;
14060;SDS011;7105;43.616;1.434;2023-05-13T14:58:55;1.80;;;1.58;;
14060;SDS011;7105;43.616;1.434;2023-05-13T15:01:21;1.50;;;1.17;;
14060;SDS011;7105;43.616;1.434;2023-05-13T15:03:47;2.08;;;1.35;;
14060;SDS011;7105;43.616;1.434;2023-05-13T15:06:13;4.72;;;1.65;;
14060;SDS011;7105;43.616;1.434;2023-05-13T15:08:38;2.25;;;1.60;;
14060;SDS011;7105;43.616;1.434;2023-05-13T15:11:07;2.70;;;1.45;;
14060;SDS011;7105;43.616;1.434;2023-05-13T15:13:33;2.75;;;1.48;;
14060;SDS011;7105;43.616;1.434;2023-05-13T15:16:03;2.47;;;1.65;;
14060;SDS011;7105;43.616;1.434;2023-05-13T15:18:32;3.05;;;1.40;;
14060;SDS011;7105;43.616;1.434;2023-05-13T15:20:58;3.38;;;1.70;;
14060;SDS011;7105;43.616;1.434;2023-05-13T15:23:24;1.75;;;1.20;;
14060;SDS011;7105;43.616;1.434;2023-05-13T15:25:49;2.15;;;1.58;;
14060;SDS011;7105;43.616;1.434;2023-05-13T15:28:15;5.15;;;1.70;;